Ever Develop — 3FLF8 — position and weather

sailwx.info

Track history (hours):
 
Tides and Currents Weather Stations Pressure Air Temp Water Temp Dewpoint Dewpoint Depression Visibility Wind Speed Wind Dir Waves Ship Positions

Ever Develop

Last reported at 2015-Jun-26 08:00 UTC. Time now 2015-Jul-02 16:38 UTC.
Position N 06°54' W 080°36'.

Type: Ship (hazmat cat D). MMSI: 356391000.

Wind from 100 at 5 knots

Waves 1.0 meters (3 feet), 3 second period

Barometer 1006.0 mb
Air temperature 28.5 ° C
Visibility: greater than 10.8 NM
Dewpoint 26.8 ° C
Water temperature 29.0 ° C

Date/timePositionNaut miles runAvg speedWind from/ knotsBaromVisibWave heightAir tempDewpointWater temp
2015-Jun-26 08:00N 06°54' W 080°36'   100 / 51006.010.8 1.028.526.829.0
2015-Jun-19 07:00N 36°24' W 070°48'5815.1 240 / 191014.010.8 2.525.425.426.0
2015-Jun-19 03:08N 37°22' W 070°44'1116.6
2015-Jun-19 02:30N 37°32' W 070°48'1717.6
2015-Jun-19 01:32N 37°46' W 071°01'2017.4
2015-Jun-19 00:25N 38°01' W 071°17'1516.8
2015-Jun-18 23:31N 38°13' W 071°29'1616.4
2015-Jun-18 22:33N 38°25' W 071°42'1615.3
2015-Jun-18 21:31N 38°37' W 071°54'1515.1
2015-Jun-18 20:32N 38°49' W 072°06'1514.9
2015-Jun-18 19:33N 38°60' W 072°18'1615.6
2015-Jun-18 18:33N 39°12' W 072°30'1616.1
2015-Jun-18 17:33N 39°25' W 072°44'1616.1
2015-Jun-18 16:33N 39°37' W 072°57'1616.1
2015-Jun-18 15:33N 39°50' W 073°10'1616.1
2015-Jun-18 14:33N 40°02' W 073°23'1717.2
2015-Jun-18 13:33N 40°16' W 073°37'1514.6
2015-Jun-18 12:33N 40°27' W 073°49'9 8.7
2015-Jun-18 11:33N 40°31' W 073°59'9 9.2
2015-Jun-18 10:33N 40°39' W 074°05'3 2.9
2015-Jun-18 09:33N 40°41' W 074°09'0 0.4
2015-Jun-18 08:33N 40°41' W 074°09'0 0.0
2015-Jun-18 07:33N 40°41' W 074°09'0 0.0
2015-Jun-18 06:33N 40°41' W 074°09'0 0.0
2015-Jun-18 05:33N 40°41' W 074°09'0 0.0
2015-Jun-18 04:33N 40°41' W 074°09'0 0.0
2015-Jun-18 03:27N 40°41' W 074°09'0 0.0
2015-Jun-18 02:33N 40°41' W 074°09'0 0.0
2015-Jun-18 01:33N 40°41' W 074°09'0 0.0
2015-Jun-18 00:33N 40°41' W 074°09'0 0.0
2015-Jun-17 23:27N 40°41' W 074°09'0 0.0
2015-Jun-17 22:33N 40°41' W 074°09'0 0.0
2015-Jun-17 21:30N 40°41' W 074°09'0 0.0
2015-Jun-17 20:33N 40°41' W 074°09'0 0.0
2015-Jun-17 19:33N 40°41' W 074°09'0 0.0
2015-Jun-17 18:33N 40°41' W 074°09'0 0.0
2015-Jun-17 17:33N 40°41' W 074°09'0 0.0
2015-Jun-17 16:33N 40°41' W 074°09'0 0.0
2015-Jun-17 15:31N 40°41' W 074°09'2 1.7
2015-Jun-17 14:33N 40°39' W 074°09'5 4.6
2015-Jun-17 13:33N 40°38' W 074°03'1211.9
2015-Jun-17 12:33N 40°29' W 073°53'1110.7
2015-Jun-17 11:33N 40°19' W 073°46'1615.9
2015-Jun-17 10:31N 40°03' W 073°43'1717.7
2015-Jun-17 09:33N 39°46' W 073°41'1818.2
2015-Jun-17 08:34N 39°28' W 073°44'1918.0
2015-Jun-17 07:31N 39°09' W 073°46'1817.9
2015-Jun-17 06:30N 38°52' W 073°51'1817.9
2015-Jun-17 05:30N 38°35' W 073°58'152 8.9
2015-Jun-16 12:22N 36°52' W 076°21'0 0.0
2015-Jun-16 11:31N 36°52' W 076°21'  
Track history (hours):
 
Tides and Currents Weather Stations Pressure Air Temp Water Temp Dewpoint Dewpoint Depression Visibility Wind Speed Wind Dir Waves Ship Positions

Ever Develop

Last reported at 2015-Jun-26 08:00 UTC. Time now 2015-Jul-02 16:38 UTC.
Position N 06°54' W 080°36'.

Type: Ship (hazmat cat D). MMSI: 356391000.

Wind from 100 at 5 knots

Waves 1.0 meters (3 feet), 3 second period

Barometer 1006.0 mb
Air temperature 28.5 ° C
Visibility: greater than 10.8 NM
Dewpoint 26.8 ° C
Water temperature 29.0 ° C

Date/timePositionNaut miles runAvg speedWind from/ knotsBaromVisibWave heightAir tempDewpointWater temp
2015-Jun-26 08:00N 06°54' W 080°36'   100 / 51006.010.8 1.028.526.829.0
2015-Jun-19 07:00N 36°24' W 070°48'5815.1 240 / 191014.010.8 2.525.425.426.0
2015-Jun-19 03:08N 37°22' W 070°44'1116.6
2015-Jun-19 02:30N 37°32' W 070°48'1717.6
2015-Jun-19 01:32N 37°46' W 071°01'2017.4
2015-Jun-19 00:25N 38°01' W 071°17'1516.8
2015-Jun-18 23:31N 38°13' W 071°29'1616.4
2015-Jun-18 22:33N 38°25' W 071°42'1615.3
2015-Jun-18 21:31N 38°37' W 071°54'1515.1
2015-Jun-18 20:32N 38°49' W 072°06'1514.9
2015-Jun-18 19:33N 38°60' W 072°18'1615.6
2015-Jun-18 18:33N 39°12' W 072°30'1616.1
2015-Jun-18 17:33N 39°25' W 072°44'1616.1
2015-Jun-18 16:33N 39°37' W 072°57'1616.1
2015-Jun-18 15:33N 39°50' W 073°10'1616.1
2015-Jun-18 14:33N 40°02' W 073°23'1717.2
2015-Jun-18 13:33N 40°16' W 073°37'1514.6
2015-Jun-18 12:33N 40°27' W 073°49'9 8.7
2015-Jun-18 11:33N 40°31' W 073°59'9 9.2
2015-Jun-18 10:33N 40°39' W 074°05'3 2.9
2015-Jun-18 09:33N 40°41' W 074°09'0 0.4
2015-Jun-18 08:33N 40°41' W 074°09'0 0.0
2015-Jun-18 07:33N 40°41' W 074°09'0 0.0
2015-Jun-18 06:33N 40°41' W 074°09'0 0.0
2015-Jun-18 05:33N 40°41' W 074°09'0 0.0
2015-Jun-18 04:33N 40°41' W 074°09'0 0.0
2015-Jun-18 03:27N 40°41' W 074°09'0 0.0
2015-Jun-18 02:33N 40°41' W 074°09'0 0.0
2015-Jun-18 01:33N 40°41' W 074°09'0 0.0
2015-Jun-18 00:33N 40°41' W 074°09'0 0.0
2015-Jun-17 23:27N 40°41' W 074°09'0 0.0
2015-Jun-17 22:33N 40°41' W 074°09'0 0.0
2015-Jun-17 21:30N 40°41' W 074°09'0 0.0
2015-Jun-17 20:33N 40°41' W 074°09'0 0.0
2015-Jun-17 19:33N 40°41' W 074°09'0 0.0
2015-Jun-17 18:33N 40°41' W 074°09'0 0.0
2015-Jun-17 17:33N 40°41' W 074°09'0 0.0
2015-Jun-17 16:33N 40°41' W 074°09'0 0.0
2015-Jun-17 15:31N 40°41' W 074°09'2 1.7
2015-Jun-17 14:33N 40°39' W 074°09'5 4.6
2015-Jun-17 13:33N 40°38' W 074°03'1211.9
2015-Jun-17 12:33N 40°29' W 073°53'1110.7
2015-Jun-17 11:33N 40°19' W 073°46'1615.9
2015-Jun-17 10:31N 40°03' W 073°43'1717.7
2015-Jun-17 09:33N 39°46' W 073°41'1818.2
2015-Jun-17 08:34N 39°28' W 073°44'1918.0
2015-Jun-17 07:31N 39°09' W 073°46'1817.9
2015-Jun-17 06:30N 38°52' W 073°51'1817.9
2015-Jun-17 05:30N 38°35' W 073°58'152 8.9
2015-Jun-16 12:22N 36°52' W 076°21'0 0.0
2015-Jun-16 11:31N 36°52' W 076°21'  

Dump ship's entire track history